La Merced, Argentina
Current Conditions -  °F | °C
As of 8:00 PM on Thursday 18 Dec 2014 (Local Time) from SANT Reporting Station
Broken Clouds Broken Clouds  
Wind Chill: 75°   Ceiling: 10000
Heat Index: 75°   Visibility: 6mi
Dew Point: 66°   Wind: 2mph
Humidity: 73%   Direction: 140°SE
Pressure: 29.83"   Gusts: NA
Location:  28.17°S, 65.68°W
Report Text: SANT 182300Z 14002KT 9999 FEW035 SCT045BKN100 24/19 Q1010
Loading
Personal Weather Stations






























Interactive Weather Map New forecast layout! Learn more

10-Day Weather Forecast

Advertisements
Track Severe Weather on mobile